createdAt,value
2023-05-11T00:00:39.703Z,6.50
2023-05-11T00:03:07.152Z,7.10
2023-05-11T00:08:17.225Z,7.80
2023-05-11T00:10:48.273Z,6.50
2023-05-11T00:13:15.421Z,8.10
2023-05-11T00:15:42.383Z,7.60
2023-05-11T00:18:09.475Z,7.00
2023-05-11T00:20:36.421Z,7.40
2023-05-11T00:23:03.362Z,8.10
2023-05-11T00:25:30.307Z,7.80
2023-05-11T00:27:57.241Z,7.50
2023-05-11T00:30:24.290Z,7.80
2023-05-11T00:32:52.346Z,7.20
2023-05-11T00:35:19.367Z,7.30
2023-05-11T00:37:46.334Z,7.20
2023-05-11T00:40:13.267Z,7.30
2023-05-11T00:42:40.450Z,8.10
2023-05-11T00:45:08.101Z,8.20
2023-05-11T00:47:35.164Z,8.10
2023-05-11T00:50:02.230Z,7.60
2023-05-11T00:52:29.255Z,7.50
2023-05-11T00:54:56.323Z,7.00
2023-05-11T00:57:23.350Z,7.30
2023-05-11T00:59:50.517Z,8.20
2023-05-11T01:02:17.943Z,8.40
2023-05-11T01:04:44.989Z,9.70
2023-05-11T01:07:18.012Z,8.40
2023-05-11T01:10:06.637Z,8.40
2023-05-11T01:12:44.632Z,8.40
2023-05-11T01:15:37.100Z,7.70
2023-05-11T01:18:23.958Z,8.00
2023-05-11T01:20:53.652Z,7.50
2023-05-11T01:23:21.081Z,8.10
2023-05-11T01:26:26.082Z,9.40
2023-05-11T01:29:31.470Z,8.80
2023-05-11T01:31:58.618Z,8.60
2023-05-11T01:34:28.719Z,8.70
2023-05-11T01:36:58.755Z,8.50
2023-05-11T01:39:30.901Z,8.10
2023-05-11T01:41:58.002Z,9.30
2023-05-11T01:44:25.952Z,9.40
2023-05-11T01:46:53.014Z,8.10
2023-05-11T01:49:19.924Z,9.40
2023-05-11T01:51:49.637Z,8.50
2023-05-11T01:54:17.606Z,8.60
2023-05-11T01:56:44.618Z,9.60
2023-05-11T01:59:12.144Z,9.80
2023-05-11T02:01:39.132Z,10.50
2023-05-11T02:04:06.732Z,10.00
2023-05-11T02:06:33.732Z,9.90
2023-05-11T02:09:01.524Z,9.90
2023-05-11T02:11:28.495Z,10.20
2023-05-11T02:13:56.690Z,10.90
2023-05-11T02:16:24.596Z,10.50
2023-05-11T02:18:51.879Z,9.30
2023-05-11T02:21:20.070Z,8.90
2023-05-11T02:23:47.095Z,8.80
2023-05-11T02:26:14.157Z,9.30
2023-05-11T02:28:41.357Z,9.00
2023-05-11T02:31:10.505Z,9.90
2023-05-11T02:33:39.935Z,9.00
2023-05-11T02:36:08.285Z,9.10
2023-05-11T02:38:36.119Z,9.00
2023-05-11T02:41:06.421Z,8.80
2023-05-11T02:43:35.656Z,8.50
2023-05-11T02:46:04.177Z,8.20
2023-05-11T02:48:32.866Z,9.00
2023-05-11T02:51:01.408Z,11.40
2023-05-11T02:53:33.375Z,9.60
2023-05-11T02:56:01.013Z,9.40
2023-05-11T02:58:30.069Z,9.40
2023-05-11T03:01:07.010Z,8.60
2023-05-11T03:03:34.152Z,9.00
2023-05-11T03:06:01.435Z,9.10
2023-05-11T03:08:28.550Z,10.50
2023-05-11T03:10:55.502Z,9.10
2023-05-11T03:13:22.930Z,8.60
2023-05-11T03:15:51.647Z,10.30
2023-05-11T03:18:19.284Z,7.80
2023-05-11T03:20:46.280Z,9.70
2023-05-11T03:23:13.663Z,8.30
2023-05-11T03:25:42.100Z,8.70
2023-05-11T03:28:11.343Z,8.30
2023-05-11T03:30:39.131Z,10.40
2023-05-11T03:33:06.859Z,8.90
2023-05-11T03:35:34.342Z,8.90
2023-05-11T03:38:01.559Z,8.30
2023-05-11T03:40:31.676Z,9.00
2023-05-11T03:43:00.338Z,8.30
2023-05-11T03:45:27.666Z,7.90
2023-05-11T03:47:54.966Z,6.80
2023-05-11T03:50:22.055Z,8.30
2023-05-11T03:52:49.500Z,8.30
2023-05-11T03:55:16.572Z,7.80
2023-05-11T03:57:43.575Z,8.90
2023-05-11T04:00:11.786Z,8.30
2023-05-11T04:02:44.854Z,9.50
2023-05-11T04:05:12.550Z,10.10
2023-05-11T04:07:40.204Z,10.60
2023-05-11T04:10:07.816Z,9.30
2023-05-11T04:12:34.884Z,9.00
2023-05-11T04:15:01.981Z,8.20
2023-05-11T04:17:29.281Z,10.60
2023-05-11T04:19:56.369Z,10.40
2023-05-11T04:22:23.465Z,11.60
2023-05-11T04:24:50.453Z,10.30
2023-05-11T04:27:17.547Z,9.10
2023-05-11T04:29:45.104Z,9.30
2023-05-11T04:32:12.181Z,9.50
2023-05-11T04:34:39.566Z,9.30
2023-05-11T04:37:07.654Z,9.60
2023-05-11T04:39:35.906Z,10.40
2023-05-11T04:42:03.180Z,11.70
2023-05-11T04:44:30.120Z,11.70
2023-05-11T04:46:57.661Z,11.70
2023-05-11T04:49:24.703Z,13.50
2023-05-11T04:51:51.724Z,11.80
2023-05-11T04:54:18.760Z,10.40
2023-05-11T04:56:46.000Z,11.80
2023-05-11T04:59:14.479Z,12.30
2023-05-11T05:01:41.641Z,11.70
2023-05-11T05:04:08.909Z,12.50
2023-05-11T05:06:36.511Z,9.40
2023-05-11T05:09:03.604Z,9.50
2023-05-11T05:11:30.772Z,9.60
2023-05-11T05:13:57.758Z,8.80
2023-05-11T05:16:24.762Z,9.00
2023-05-11T05:18:51.825Z,7.60
2023-05-11T05:21:18.831Z,9.60
2023-05-11T05:23:45.768Z,8.50
2023-05-11T05:26:12.814Z,8.00
2023-05-11T05:28:41.066Z,7.60
2023-05-11T05:31:08.946Z,8.70
2023-05-11T05:33:35.912Z,7.10
2023-05-11T05:36:03.019Z,7.80
2023-05-11T05:38:30.208Z,7.30
2023-05-11T05:40:58.061Z,7.20
2023-05-11T05:43:26.129Z,7.40
2023-05-11T05:45:53.283Z,8.20
2023-05-11T05:48:20.838Z,7.90
2023-05-11T05:50:48.712Z,8.00
2023-05-11T05:53:16.530Z,7.10
2023-05-11T05:55:44.304Z,6.20
2023-05-11T05:58:11.642Z,5.60
2023-05-11T06:00:38.804Z,5.30
2023-05-11T06:03:07.123Z,6.00
2023-05-11T06:05:34.213Z,5.30
2023-05-11T06:08:10.080Z,5.20
2023-05-11T06:10:38.830Z,5.30
2023-05-11T06:13:07.179Z,5.10
2023-05-11T06:15:34.723Z,4.80
2023-05-11T06:18:07.953Z,5.50
2023-05-11T06:20:35.827Z,5.00
2023-05-11T06:23:04.586Z,5.20
2023-05-11T06:25:35.999Z,5.00
2023-05-11T06:28:03.382Z,4.90
2023-05-11T06:30:31.521Z,4.40
2023-05-11T06:32:59.192Z,5.20
2023-05-11T06:35:26.416Z,4.80
2023-05-11T06:37:53.412Z,4.70
2023-05-11T06:40:20.831Z,4.40
2023-05-11T06:42:47.954Z,4.70
2023-05-11T06:45:15.053Z,4.80
2023-05-11T06:47:42.602Z,4.50
2023-05-11T06:50:10.069Z,4.50
2023-05-11T06:52:37.938Z,4.50
2023-05-11T06:55:05.582Z,4.70
2023-05-11T06:57:32.669Z,5.00
2023-05-11T06:59:59.597Z,4.30
2023-05-11T07:02:26.690Z,4.20
2023-05-11T07:04:53.784Z,4.30
2023-05-11T07:07:20.876Z,3.50
2023-05-11T07:09:47.804Z,4.30
2023-05-11T07:12:14.726Z,4.30
2023-05-11T07:14:41.712Z,3.60
2023-05-11T07:17:08.856Z,3.80
2023-05-11T07:19:36.011Z,4.00
2023-05-11T07:22:03.088Z,3.90
2023-05-11T07:24:30.067Z,4.00
2023-05-11T07:26:57.679Z,4.20
2023-05-11T07:29:24.794Z,3.90
2023-05-11T07:31:51.899Z,3.60
2023-05-11T07:34:18.907Z,3.80
2023-05-11T07:36:46.857Z,4.10
2023-05-11T07:39:16.323Z,4.10
2023-05-11T07:41:43.436Z,3.80
2023-05-11T07:44:10.489Z,3.90
2023-05-11T07:46:37.548Z,3.40
2023-05-11T07:49:15.736Z,3.50
2023-05-11T07:51:47.886Z,3.50
2023-05-11T07:54:14.890Z,3.70
2023-05-11T07:56:42.382Z,4.00
2023-05-11T07:59:09.466Z,3.40
2023-05-11T08:01:36.909Z,3.60
2023-05-11T08:04:04.106Z,4.10
2023-05-11T08:06:31.352Z,3.60
2023-05-11T08:08:58.485Z,3.70
2023-05-11T08:11:26.272Z,3.70
2023-05-11T08:13:53.267Z,2.90
2023-05-11T08:16:20.236Z,3.30
2023-05-11T08:18:47.324Z,3.10
2023-05-11T08:21:14.675Z,3.10
2023-05-11T08:23:43.448Z,2.80
2023-05-11T08:26:11.549Z,2.80
2023-05-11T08:28:38.566Z,3.00
2023-05-11T08:31:06.398Z,3.00
2023-05-11T08:33:38.386Z,2.90
2023-05-11T08:36:07.066Z,2.50
2023-05-11T08:38:35.443Z,2.70
2023-05-11T08:41:02.874Z,4.10
2023-05-11T08:43:30.181Z,2.80
2023-05-11T08:45:58.320Z,2.80
2023-05-11T08:48:25.295Z,3.10
2023-05-11T08:50:52.815Z,2.70
2023-05-11T08:53:19.869Z,2.40
2023-05-11T08:55:47.063Z,2.70
2023-05-11T08:58:19.600Z,3.20
2023-05-11T09:00:47.404Z,3.20
2023-05-11T09:03:14.675Z,2.90
2023-05-11T09:05:41.766Z,3.20
2023-05-11T09:08:09.142Z,2.10
2023-05-11T09:10:36.921Z,2.70
2023-05-11T09:13:03.971Z,2.60
2023-05-11T09:15:36.974Z,2.00
2023-05-11T09:18:05.026Z,2.80
2023-05-11T09:20:32.621Z,3.00
2023-05-11T09:22:59.904Z,2.80
2023-05-11T09:25:27.495Z,2.80
2023-05-11T09:27:54.461Z,2.30
2023-05-11T09:30:23.709Z,2.40
2023-05-11T09:32:58.370Z,2.20
2023-05-11T09:35:32.357Z,2.70
2023-05-11T09:38:12.645Z,2.90
2023-05-11T09:40:43.354Z,2.70
2023-05-11T09:43:17.484Z,2.50
2023-05-11T09:45:45.645Z,2.40
2023-05-11T09:48:22.046Z,2.60
2023-05-11T09:50:49.533Z,2.00
2023-05-11T09:53:17.273Z,5.60
2023-05-11T09:55:55.200Z,2.80
2023-05-11T09:58:22.359Z,3.00
2023-05-11T10:00:53.798Z,2.60
2023-05-11T10:03:21.067Z,3.50
2023-05-11T10:05:59.015Z,2.40
2023-05-11T10:08:38.935Z,2.90
2023-05-11T10:11:05.951Z,2.40
2023-05-11T10:13:32.981Z,2.20
2023-05-11T10:16:00.231Z,2.60
2023-05-11T10:18:27.346Z,2.30
2023-05-11T10:20:54.312Z,2.20
2023-05-11T10:23:21.337Z,2.70
2023-05-11T10:25:48.337Z,2.60
2023-05-11T10:28:15.240Z,2.90
2023-05-11T10:30:42.273Z,2.80
2023-05-11T10:33:09.384Z,2.40
2023-05-11T10:35:37.848Z,2.60
2023-05-11T10:38:06.023Z,2.30
2023-05-11T10:40:42.196Z,2.60
2023-05-11T10:43:27.456Z,2.50
2023-05-11T10:45:57.895Z,2.50
2023-05-11T10:48:31.387Z,2.50
2023-05-11T10:51:01.543Z,2.60
2023-05-11T10:53:34.776Z,2.90
2023-05-11T10:56:20.414Z,2.30
2023-05-11T10:59:16.202Z,2.40
2023-05-11T11:01:43.902Z,2.60
2023-05-11T11:04:12.172Z,2.90
2023-05-11T11:06:43.309Z,2.40
2023-05-11T11:09:14.702Z,2.20
2023-05-11T11:11:46.533Z,2.40
2023-05-11T11:14:14.917Z,2.20
2023-05-11T11:16:42.666Z,2.50
2023-05-11T11:19:31.474Z,3.00
2023-05-11T11:22:02.162Z,2.70
2023-05-11T11:24:38.579Z,2.60
2023-05-11T11:27:06.323Z,2.30
2023-05-11T11:29:34.790Z,2.30
2023-05-11T11:32:20.154Z,3.00
2023-05-11T11:34:47.459Z,2.60
2023-05-11T11:37:15.329Z,2.50
2023-05-11T11:39:42.581Z,2.40
2023-05-11T11:42:13.675Z,2.70
2023-05-11T11:44:41.865Z,2.50
2023-05-11T11:47:15.014Z,2.50
2023-05-11T11:49:43.762Z,2.40
2023-05-11T11:52:34.873Z,3.50
2023-05-11T11:55:05.362Z,3.00
2023-05-11T11:57:32.764Z,3.00
2023-05-11T12:00:07.244Z,2.50
2023-05-11T12:02:41.177Z,2.60
2023-05-11T12:05:19.151Z,2.40
2023-05-11T12:07:48.676Z,2.00
2023-05-11T12:10:17.771Z,2.20
2023-05-11T12:12:45.596Z,2.40
2023-05-11T12:15:26.115Z,2.50
2023-05-11T12:17:53.280Z,2.40
2023-05-11T12:20:21.069Z,2.40
2023-05-11T12:22:49.455Z,2.90
2023-05-11T12:25:18.523Z,3.50
2023-05-11T12:27:55.467Z,2.80
2023-05-11T12:30:27.272Z,2.90
2023-05-11T12:35:28.937Z,2.40
2023-05-11T12:37:56.897Z,2.60
2023-05-11T12:40:24.590Z,2.10
2023-05-11T12:42:56.276Z,2.20
2023-05-11T12:47:55.167Z,2.40
2023-05-11T12:50:22.784Z,2.60
2023-05-11T12:52:50.595Z,2.10
2023-05-11T12:55:30.474Z,2.20
2023-05-11T12:58:08.190Z,2.30
2023-05-11T13:00:35.639Z,2.40
2023-05-11T13:03:02.806Z,2.50
2023-05-11T13:05:30.243Z,2.40
2023-05-11T13:08:01.466Z,2.60
2023-05-11T13:10:28.711Z,2.50
2023-05-11T13:12:56.307Z,2.30
2023-05-11T13:15:24.578Z,2.80
2023-05-11T13:17:59.611Z,2.70
2023-05-11T13:20:28.072Z,2.40
2023-05-11T13:23:07.465Z,2.40
2023-05-11T13:25:47.356Z,2.40
2023-05-11T13:28:18.769Z,2.50
2023-05-11T13:30:46.391Z,2.40
2023-05-11T13:33:13.569Z,2.30
2023-05-11T13:35:41.772Z,2.30
2023-05-11T13:38:09.405Z,2.40
2023-05-11T13:40:36.592Z,2.70
2023-05-11T13:43:03.897Z,2.40
2023-05-11T13:45:30.857Z,2.90
2023-05-11T13:47:58.003Z,2.10
2023-05-11T13:50:25.737Z,2.20
2023-05-11T13:52:53.280Z,2.40
2023-05-11T13:55:21.249Z,2.30
2023-05-11T13:57:48.643Z,2.30
2023-05-11T14:00:16.213Z,2.50
2023-05-11T14:02:44.413Z,2.50
2023-05-11T14:05:11.544Z,2.20
2023-05-11T14:07:46.470Z,2.30
2023-05-11T14:10:16.400Z,2.40
2023-05-11T14:12:43.436Z,2.40
2023-05-11T14:15:10.762Z,2.10
2023-05-11T14:17:37.876Z,2.10
2023-05-11T14:20:06.316Z,2.40
2023-05-11T14:22:33.267Z,2.10
2023-05-11T14:25:01.943Z,2.20
2023-05-11T14:27:29.084Z,2.20
2023-05-11T14:29:56.421Z,1.90
2023-05-11T14:32:23.662Z,2.30
2023-05-11T14:34:50.773Z,2.30
2023-05-11T14:37:17.742Z,2.10
2023-05-11T14:39:45.114Z,2.50
2023-05-11T14:42:12.032Z,2.40
2023-05-11T14:44:38.984Z,1.80
2023-05-11T14:47:06.495Z,2.30
2023-05-11T14:49:33.664Z,2.40
2023-05-11T14:52:00.834Z,2.40
2023-05-11T14:54:27.986Z,2.20
2023-05-11T14:56:56.695Z,2.60
2023-05-11T14:59:25.382Z,2.20
2023-05-11T15:01:52.619Z,2.50
2023-05-11T15:04:20.358Z,2.60
2023-05-11T15:06:47.809Z,2.50
2023-05-11T15:09:15.039Z,2.50
2023-05-11T15:11:42.304Z,2.20
2023-05-11T15:14:09.996Z,2.30
2023-05-11T15:16:37.908Z,2.40
2023-05-11T15:19:06.113Z,2.30
2023-05-11T15:21:33.534Z,2.70
2023-05-11T15:24:00.544Z,2.50
2023-05-11T15:26:27.467Z,2.20
2023-05-11T15:28:54.770Z,2.30
2023-05-11T15:31:22.608Z,2.50
2023-05-11T15:33:49.941Z,2.40
2023-05-11T15:36:17.025Z,2.50
2023-05-11T15:38:44.756Z,2.40
2023-05-11T15:41:11.856Z,2.20
2023-05-11T15:43:38.843Z,2.10
2023-05-11T15:46:07.206Z,2.90
2023-05-11T15:48:34.678Z,2.10
2023-05-11T15:51:02.190Z,2.40
2023-05-11T15:53:29.648Z,2.70
2023-05-11T15:55:57.037Z,2.80
2023-05-11T15:58:24.117Z,2.60
2023-05-11T16:00:51.452Z,2.30
2023-05-11T16:03:19.964Z,2.30
2023-05-11T16:05:47.432Z,2.40
2023-05-11T16:08:14.772Z,2.10
2023-05-11T16:10:41.842Z,2.30
2023-05-11T16:13:09.389Z,2.40
2023-05-11T16:15:36.690Z,2.40
2023-05-11T16:18:05.190Z,2.80
2023-05-11T16:20:32.835Z,2.80
2023-05-11T16:23:00.234Z,2.30
2023-05-11T16:25:27.490Z,3.00
2023-05-11T16:27:54.491Z,2.30
2023-05-11T16:30:25.541Z,2.50
2023-05-11T16:32:53.682Z,2.80
2023-05-11T16:35:20.992Z,2.50
2023-05-11T16:37:48.470Z,2.70
2023-05-11T16:40:19.133Z,2.40
2023-05-11T16:42:47.618Z,2.90
2023-05-11T16:45:15.333Z,2.60
2023-05-11T16:47:45.269Z,2.20
2023-05-11T16:50:16.473Z,2.70
2023-05-11T16:52:43.761Z,2.70
2023-05-11T16:55:11.059Z,3.10
2023-05-11T16:57:38.167Z,2.30
2023-05-11T17:00:06.554Z,2.90
2023-05-11T17:02:33.773Z,3.00
2023-05-11T17:05:01.119Z,2.60
2023-05-11T17:07:28.064Z,2.60
2023-05-11T17:09:57.280Z,2.70
2023-05-11T17:12:24.514Z,2.90
2023-05-11T17:14:51.582Z,3.20
2023-05-11T17:17:18.677Z,2.80
2023-05-11T17:19:45.742Z,3.10
2023-05-11T17:22:12.938Z,2.50
2023-05-11T17:24:40.228Z,3.10
2023-05-11T17:27:07.483Z,2.80
2023-05-11T17:29:34.603Z,3.00
2023-05-11T17:32:01.929Z,3.00
2023-05-11T17:34:29.900Z,2.60
2023-05-11T17:36:57.226Z,2.90
2023-05-11T17:39:24.736Z,3.50
2023-05-11T17:41:51.904Z,3.20
2023-05-11T17:44:19.016Z,2.80
2023-05-11T17:46:46.414Z,2.90
2023-05-11T17:49:13.865Z,3.40
2023-05-11T17:51:40.939Z,3.60
2023-05-11T17:54:07.891Z,3.70
2023-05-11T17:56:35.171Z,4.00
2023-05-11T17:59:02.441Z,4.00
2023-05-11T18:01:29.572Z,3.90
2023-05-11T18:03:57.867Z,3.80
2023-05-11T18:06:25.194Z,4.50
2023-05-11T18:08:52.777Z,3.00
2023-05-11T18:11:20.038Z,3.80
2023-05-11T18:13:47.382Z,3.30
2023-05-11T18:16:14.666Z,4.20
2023-05-11T18:18:42.798Z,3.60
2023-05-11T18:21:10.929Z,4.60
2023-05-11T18:23:38.004Z,3.90
2023-05-11T18:26:06.004Z,4.30
2023-05-11T18:28:33.436Z,3.90
2023-05-11T18:31:00.561Z,3.90
2023-05-11T18:33:27.609Z,4.10
2023-05-11T18:35:54.538Z,3.90
2023-05-11T18:38:21.601Z,4.80
2023-05-11T18:40:48.737Z,4.30
2023-05-11T18:43:15.657Z,4.10
2023-05-11T18:45:44.373Z,4.30
2023-05-11T18:48:11.586Z,4.10
2023-05-11T18:50:39.400Z,4.70
2023-05-11T18:53:06.431Z,5.00
2023-05-11T18:55:44.811Z,4.70
2023-05-11T18:58:12.885Z,4.80
2023-05-11T19:00:40.658Z,5.00
2023-05-11T19:03:07.961Z,4.70
2023-05-11T19:05:34.931Z,5.30
2023-05-11T19:08:03.094Z,5.20
2023-05-11T19:10:55.832Z,4.70
2023-05-11T19:13:53.345Z,5.00
2023-05-11T19:19:11.993Z,5.00
2023-05-11T19:21:48.123Z,5.70
2023-05-11T19:24:25.788Z,5.40
2023-05-11T19:27:06.022Z,5.40
2023-05-11T19:29:57.740Z,5.30
2023-05-11T19:35:33.843Z,5.30
2023-05-11T19:38:08.563Z,5.80
2023-05-11T19:41:06.257Z,6.00
2023-05-11T19:43:35.780Z,5.90
2023-05-11T19:46:22.552Z,5.50
2023-05-11T19:49:03.026Z,5.80
2023-05-11T19:51:32.185Z,5.40
2023-05-11T19:54:02.208Z,6.40
2023-05-11T19:59:41.417Z,6.00
2023-05-11T20:02:09.252Z,6.80
2023-05-11T20:04:36.380Z,6.00
2023-05-11T20:07:04.158Z,6.30
2023-05-11T20:09:31.260Z,5.50
2023-05-11T20:11:58.230Z,6.20
2023-05-11T20:14:25.281Z,6.90
2023-05-11T20:16:52.242Z,6.60
2023-05-11T20:19:19.164Z,6.80
2023-05-11T20:21:46.010Z,6.80
2023-05-11T20:24:13.160Z,6.80
2023-05-11T20:26:40.103Z,6.60
2023-05-11T20:29:09.295Z,7.50
2023-05-11T20:31:36.535Z,6.30
2023-05-11T20:36:33.153Z,6.20
2023-05-11T20:39:00.256Z,6.50
2023-05-11T20:41:28.365Z,6.20
2023-05-11T20:43:55.524Z,6.10
2023-05-11T20:46:22.837Z,5.70
2023-05-11T20:48:51.941Z,5.40
2023-05-11T20:51:23.452Z,5.50
2023-05-11T20:53:50.841Z,5.20
2023-05-11T20:56:17.922Z,6.10
2023-05-11T20:58:47.570Z,5.80
2023-05-11T21:01:14.799Z,5.50
2023-05-11T21:03:42.071Z,5.50
2023-05-11T21:06:09.202Z,5.70
2023-05-11T21:08:36.436Z,6.50
2023-05-11T21:11:03.736Z,6.00
2023-05-11T21:13:30.914Z,6.00
2023-05-11T21:15:58.038Z,5.40
2023-05-11T21:18:32.167Z,5.90
2023-05-11T21:20:59.438Z,6.30
2023-05-11T21:23:26.995Z,6.90
2023-05-11T21:25:54.666Z,6.80
2023-05-11T21:28:21.946Z,7.40
2023-05-11T21:30:50.238Z,6.70
2023-05-11T21:33:17.549Z,6.90
2023-05-11T21:35:44.766Z,6.90
2023-05-11T21:38:15.073Z,7.00
2023-05-11T21:40:42.325Z,7.10
2023-05-11T21:43:10.992Z,6.40
2023-05-11T21:45:39.015Z,7.20
2023-05-11T21:48:06.527Z,7.70
2023-05-11T21:50:33.807Z,9.40
2023-05-11T21:53:00.954Z,7.40
2023-05-11T21:55:28.064Z,7.70
2023-05-11T21:57:55.261Z,11.30
2023-05-11T22:00:23.050Z,13.50
2023-05-11T22:02:50.471Z,13.70
2023-05-11T22:05:17.716Z,10.40
2023-05-11T22:07:45.062Z,12.00
2023-05-11T22:10:12.462Z,11.70
2023-05-11T22:12:39.576Z,11.40
2023-05-11T22:15:08.650Z,7.60
2023-05-11T22:17:39.691Z,7.10
2023-05-11T22:20:08.290Z,7.70
2023-05-11T22:22:35.734Z,7.20
2023-05-11T22:25:03.177Z,7.60
2023-05-11T22:27:30.347Z,7.30
2023-05-11T22:29:57.522Z,7.10
2023-05-11T22:32:24.719Z,8.80
2023-05-11T22:34:58.732Z,8.20
2023-05-11T22:37:26.603Z,7.70
2023-05-11T22:39:54.191Z,8.20
2023-05-11T22:42:22.018Z,8.10
2023-05-11T22:44:49.009Z,7.80
2023-05-11T22:47:16.057Z,8.70
2023-05-11T22:49:43.374Z,10.20
2023-05-11T22:52:10.549Z,8.80
2023-05-11T22:54:37.654Z,8.70
2023-05-11T22:57:04.864Z,8.80
2023-05-11T22:59:34.613Z,9.10
2023-05-11T23:02:03.362Z,8.80
2023-05-11T23:04:31.379Z,8.60
2023-05-11T23:06:59.681Z,8.70
2023-05-11T23:09:26.777Z,8.20
2023-05-11T23:11:54.021Z,8.80
2023-05-11T23:14:21.098Z,9.80
2023-05-11T23:16:48.021Z,9.40
2023-05-11T23:19:14.976Z,8.50
2023-05-11T23:21:42.044Z,9.20
2023-05-11T23:24:09.121Z,10.40
2023-05-11T23:26:36.444Z,9.40
2023-05-11T23:29:03.835Z,10.50
2023-05-11T23:31:32.493Z,10.30
2023-05-11T23:34:00.687Z,10.60
2023-05-11T23:36:27.740Z,11.20
2023-05-11T23:38:54.783Z,11.10
2023-05-11T23:41:22.416Z,10.60
2023-05-11T23:43:49.561Z,10.60
2023-05-11T23:46:16.695Z,10.10
2023-05-11T23:48:43.745Z,10.70
2023-05-11T23:51:10.893Z,11.20
2023-05-11T23:53:38.339Z,9.60
2023-05-11T23:56:05.588Z,9.50
2023-05-11T23:58:32.662Z,9.20
